sensor_id;sensor_type;location;lat;lon;timestamp;temperature;humidity
63899;HTU21D;50070;-32.946;-60.652;2023-04-24T00:00:47;21.28;72.86
63899;HTU21D;50070;-32.946;-60.652;2023-04-24T00:03:14;21.31;72.46
63899;HTU21D;50070;-32.946;-60.652;2023-04-24T00:05:41;21.07;73.46
63899;HTU21D;50070;-32.946;-60.652;2023-04-24T00:08:08;21.19;72.96
63899;HTU21D;50070;-32.946;-60.652;2023-04-24T00:10:35;21.02;73.50
63899;HTU21D;50070;-32.946;-60.652;2023-04-24T00:13:02;21.01;73.76
63899;HTU21D;50070;-32.946;-60.652;2023-04-24T00:15:29;20.95;73.77
63899;HTU21D;50070;-32.946;-60.652;2023-04-24T00:17:55;21.04;73.36
63899;HTU21D;50070;-32.946;-60.652;2023-04-24T00:20:22;20.91;73.96
63899;HTU21D;50070;-32.946;-60.652;2023-04-24T00:22:49;20.92;73.96
63899;HTU21D;50070;-32.946;-60.652;2023-04-24T00:25:16;20.90;74.14
63899;HTU21D;50070;-32.946;-60.652;2023-04-24T00:27:43;20.85;74.19
63899;HTU21D;50070;-32.946;-60.652;2023-04-24T00:30:10;20.77;74.60
63899;HTU21D;50070;-32.946;-60.652;2023-04-24T00:32:37;20.59;75.23
63899;HTU21D;50070;-32.946;-60.652;2023-04-24T00:35:04;20.57;75.41
63899;HTU21D;50070;-32.946;-60.652;2023-04-24T00:37:32;20.73;75.13
63899;HTU21D;50070;-32.946;-60.652;2023-04-24T00:39:58;20.79;74.70
63899;HTU21D;50070;-32.946;-60.652;2023-04-24T00:42:25;20.60;75.63
63899;HTU21D;50070;-32.946;-60.652;2023-04-24T00:44:52;20.45;76.70
63899;HTU21D;50070;-32.946;-60.652;2023-04-24T00:47:19;20.53;76.63
63899;HTU21D;50070;-32.946;-60.652;2023-04-24T00:49:47;20.51;77.22
63899;HTU21D;50070;-32.946;-60.652;2023-04-24T00:52:14;20.57;76.90
63899;HTU21D;50070;-32.946;-60.652;2023-04-24T00:54:47;20.59;76.96
63899;HTU21D;50070;-32.946;-60.652;2023-04-24T00:57:14;20.60;76.84
63899;HTU21D;50070;-32.946;-60.652;2023-04-24T00:59:42;20.32;78.09
63899;HTU21D;50070;-32.946;-60.652;2023-04-24T01:02:10;20.34;77.88
63899;HTU21D;50070;-32.946;-60.652;2023-04-24T01:04:38;20.51;77.14
63899;HTU21D;50070;-32.946;-60.652;2023-04-24T01:07:05;20.41;77.43
63899;HTU21D;50070;-32.946;-60.652;2023-04-24T01:09:38;20.46;77.10
63899;HTU21D;50070;-32.946;-60.652;2023-04-24T01:12:07;20.46;76.65
63899;HTU21D;50070;-32.946;-60.652;2023-04-24T01:14:35;20.36;77.10
63899;HTU21D;50070;-32.946;-60.652;2023-04-24T01:17:02;20.41;76.67
63899;HTU21D;50070;-32.946;-60.652;2023-04-24T01:19:29;20.39;76.74
63899;HTU21D;50070;-32.946;-60.652;2023-04-24T01:21:58;20.53;76.12
63899;HTU21D;50070;-32.946;-60.652;2023-04-24T01:24:28;20.55;75.91
63899;HTU21D;50070;-32.946;-60.652;2023-04-24T01:26:55;20.41;76.41
63899;HTU21D;50070;-32.946;-60.652;2023-04-24T01:29:23;20.34;76.60
63899;HTU21D;50070;-32.946;-60.652;2023-04-24T01:31:50;20.43;76.37
63899;HTU21D;50070;-32.946;-60.652;2023-04-24T01:34:17;20.22;77.35
63899;HTU21D;50070;-32.946;-60.652;2023-04-24T01:36:46;20.14;77.65
63899;HTU21D;50070;-32.946;-60.652;2023-04-24T01:39:13;20.14;77.66
63899;HTU21D;50070;-32.946;-60.652;2023-04-24T01:41:41;20.17;77.43
63899;HTU21D;50070;-32.946;-60.652;2023-04-24T01:44:08;20.18;77.46
63899;HTU21D;50070;-32.946;-60.652;2023-04-24T01:46:35;20.17;77.34
63899;HTU21D;50070;-32.946;-60.652;2023-04-24T01:49:02;20.24;77.32
63899;HTU21D;50070;-32.946;-60.652;2023-04-24T01:51:29;20.09;77.86
63899;HTU21D;50070;-32.946;-60.652;2023-04-24T01:53:56;20.06;78.08
63899;HTU21D;50070;-32.946;-60.652;2023-04-24T01:56:23;20.18;77.70
63899;HTU21D;50070;-32.946;-60.652;2023-04-24T01:58:52;20.36;76.88
63899;HTU21D;50070;-32.946;-60.652;2023-04-24T02:01:20;20.03;78.30
63899;HTU21D;50070;-32.946;-60.652;2023-04-24T02:03:47;20.03;78.21
63899;HTU21D;50070;-32.946;-60.652;2023-04-24T02:06:14;20.03;78.48
63899;HTU21D;50070;-32.946;-60.652;2023-04-24T02:08:41;20.12;78.04
63899;HTU21D;50070;-32.946;-60.652;2023-04-24T02:11:09;19.88;79.11
63899;HTU21D;50070;-32.946;-60.652;2023-04-24T02:13:36;20.02;78.66
63899;HTU21D;50070;-32.946;-60.652;2023-04-24T02:16:03;19.98;78.64
63899;HTU21D;50070;-32.946;-60.652;2023-04-24T02:18:29;19.70;79.91
63899;HTU21D;50070;-32.946;-60.652;2023-04-24T02:20:56;19.94;78.79
63899;HTU21D;50070;-32.946;-60.652;2023-04-24T02:23:22;19.86;78.91
63899;HTU21D;50070;-32.946;-60.652;2023-04-24T02:25:49;19.85;78.96
63899;HTU21D;50070;-32.946;-60.652;2023-04-24T02:28:16;19.99;78.44
63899;HTU21D;50070;-32.946;-60.652;2023-04-24T02:30:43;19.95;79.01
63899;HTU21D;50070;-32.946;-60.652;2023-04-24T02:33:09;19.84;79.43
63899;HTU21D;50070;-32.946;-60.652;2023-04-24T02:35:36;20.05;78.49
63899;HTU21D;50070;-32.946;-60.652;2023-04-24T02:38:03;19.89;79.26
63899;HTU21D;50070;-32.946;-60.652;2023-04-24T02:40:30;19.84;79.60
63899;HTU21D;50070;-32.946;-60.652;2023-04-24T02:42:56;19.83;79.50
63899;HTU21D;50070;-32.946;-60.652;2023-04-24T02:45:23;19.67;80.47
63899;HTU21D;50070;-32.946;-60.652;2023-04-24T02:47:50;19.63;80.46
63899;HTU21D;50070;-32.946;-60.652;2023-04-24T02:50:17;19.66;80.36
63899;HTU21D;50070;-32.946;-60.652;2023-04-24T02:52:43;19.57;80.75
63899;HTU21D;50070;-32.946;-60.652;2023-04-24T02:55:10;19.55;80.86
63899;HTU21D;50070;-32.946;-60.652;2023-04-24T02:57:37;19.66;80.65
63899;HTU21D;50070;-32.946;-60.652;2023-04-24T03:00:04;19.74;80.07
63899;HTU21D;50070;-32.946;-60.652;2023-04-24T03:02:33;19.61;80.51
63899;HTU21D;50070;-32.946;-60.652;2023-04-24T03:05:00;19.52;81.00
63899;HTU21D;50070;-32.946;-60.652;2023-04-24T03:07:26;19.61;80.57
63899;HTU21D;50070;-32.946;-60.652;2023-04-24T03:09:53;19.54;80.89
63899;HTU21D;50070;-32.946;-60.652;2023-04-24T03:12:20;19.50;81.17
63899;HTU21D;50070;-32.946;-60.652;2023-04-24T03:14:49;19.56;80.68
63899;HTU21D;50070;-32.946;-60.652;2023-04-24T03:17:16;19.36;81.57
63899;HTU21D;50070;-32.946;-60.652;2023-04-24T03:19:43;19.31;81.80
63899;HTU21D;50070;-32.946;-60.652;2023-04-24T03:22:09;19.33;81.68
63899;HTU21D;50070;-32.946;-60.652;2023-04-24T03:24:37;19.51;80.76
63899;HTU21D;50070;-32.946;-60.652;2023-04-24T03:27:04;19.50;80.70
63899;HTU21D;50070;-32.946;-60.652;2023-04-24T03:29:30;19.58;80.27
63899;HTU21D;50070;-32.946;-60.652;2023-04-24T03:31:57;19.51;80.60
63899;HTU21D;50070;-32.946;-60.652;2023-04-24T03:34:24;19.42;80.80
63899;HTU21D;50070;-32.946;-60.652;2023-04-24T03:36:51;19.60;79.78
63899;HTU21D;50070;-32.946;-60.652;2023-04-24T03:39:18;19.55;80.22
63899;HTU21D;50070;-32.946;-60.652;2023-04-24T03:41:45;19.33;80.72
63899;HTU21D;50070;-32.946;-60.652;2023-04-24T03:44:12;19.25;81.18
63899;HTU21D;50070;-32.946;-60.652;2023-04-24T03:46:39;19.08;82.13
63899;HTU21D;50070;-32.946;-60.652;2023-04-24T03:49:05;19.15;81.78
63899;HTU21D;50070;-32.946;-60.652;2023-04-24T03:51:32;19.09;82.45
63899;HTU21D;50070;-32.946;-60.652;2023-04-24T03:53:59;19.05;82.20
63899;HTU21D;50070;-32.946;-60.652;2023-04-24T03:56:26;18.97;82.66
63899;HTU21D;50070;-32.946;-60.652;2023-04-24T03:58:52;18.76;83.74
63899;HTU21D;50070;-32.946;-60.652;2023-04-24T04:01:19;18.84;83.34
63899;HTU21D;50070;-32.946;-60.652;2023-04-24T04:03:46;18.99;82.63
63899;HTU21D;50070;-32.946;-60.652;2023-04-24T04:06:13;19.12;81.94
63899;HTU21D;50070;-32.946;-60.652;2023-04-24T04:08:40;18.74;83.77
63899;HTU21D;50070;-32.946;-60.652;2023-04-24T04:11:07;18.85;83.49
63899;HTU21D;50070;-32.946;-60.652;2023-04-24T04:13:34;18.81;83.55
63899;HTU21D;50070;-32.946;-60.652;2023-04-24T04:16:00;18.92;83.07
63899;HTU21D;50070;-32.946;-60.652;2023-04-24T04:18:27;18.81;83.55
63899;HTU21D;50070;-32.946;-60.652;2023-04-24T04:20:54;18.93;83.10
63899;HTU21D;50070;-32.946;-60.652;2023-04-24T04:23:21;18.98;82.78
63899;HTU21D;50070;-32.946;-60.652;2023-04-24T04:25:47;18.89;82.98
63899;HTU21D;50070;-32.946;-60.652;2023-04-24T04:28:14;18.91;82.90
63899;HTU21D;50070;-32.946;-60.652;2023-04-24T04:30:41;18.99;82.55
63899;HTU21D;50070;-32.946;-60.652;2023-04-24T04:33:08;18.89;82.84
63899;HTU21D;50070;-32.946;-60.652;2023-04-24T04:35:36;18.87;83.23
63899;HTU21D;50070;-32.946;-60.652;2023-04-24T04:38:03;19.01;82.46
63899;HTU21D;50070;-32.946;-60.652;2023-04-24T04:40:30;18.69;84.19
63899;HTU21D;50070;-32.946;-60.652;2023-04-24T04:42:57;18.70;84.23
63899;HTU21D;50070;-32.946;-60.652;2023-04-24T04:45:24;19.02;82.75
63899;HTU21D;50070;-32.946;-60.652;2023-04-24T04:47:52;18.83;83.91
63899;HTU21D;50070;-32.946;-60.652;2023-04-24T04:50:21;18.80;84.18
63899;HTU21D;50070;-32.946;-60.652;2023-04-24T04:52:48;18.74;84.61
63899;HTU21D;50070;-32.946;-60.652;2023-04-24T04:55:15;18.84;84.27
63899;HTU21D;50070;-32.946;-60.652;2023-04-24T04:57:42;18.82;84.67
63899;HTU21D;50070;-32.946;-60.652;2023-04-24T05:00:09;18.66;85.36
63899;HTU21D;50070;-32.946;-60.652;2023-04-24T05:02:37;18.71;85.22
63899;HTU21D;50070;-32.946;-60.652;2023-04-24T05:05:04;18.68;85.50
63899;HTU21D;50070;-32.946;-60.652;2023-04-24T05:07:31;18.71;85.29
63899;HTU21D;50070;-32.946;-60.652;2023-04-24T05:09:58;18.69;85.34
63899;HTU21D;50070;-32.946;-60.652;2023-04-24T05:12:25;18.72;85.20
63899;HTU21D;50070;-32.946;-60.652;2023-04-24T05:14:53;18.64;85.56
63899;HTU21D;50070;-32.946;-60.652;2023-04-24T05:17:19;18.57;85.29
63899;HTU21D;50070;-32.946;-60.652;2023-04-24T05:19:46;18.47;85.82
63899;HTU21D;50070;-32.946;-60.652;2023-04-24T05:22:14;18.63;85.09
63899;HTU21D;50070;-32.946;-60.652;2023-04-24T05:24:41;18.91;83.23
63899;HTU21D;50070;-32.946;-60.652;2023-04-24T05:27:07;19.11;82.24
63899;HTU21D;50070;-32.946;-60.652;2023-04-24T05:29:34;19.02;82.66
63899;HTU21D;50070;-32.946;-60.652;2023-04-24T05:32:01;18.99;82.40
63899;HTU21D;50070;-32.946;-60.652;2023-04-24T05:34:28;18.84;82.57
63899;HTU21D;50070;-32.946;-60.652;2023-04-24T05:36:54;18.95;81.78
63899;HTU21D;50070;-32.946;-60.652;2023-04-24T05:39:21;18.87;82.20
63899;HTU21D;50070;-32.946;-60.652;2023-04-24T05:41:48;18.84;82.26
63899;HTU21D;50070;-32.946;-60.652;2023-04-24T05:44:14;18.73;82.54
63899;HTU21D;50070;-32.946;-60.652;2023-04-24T05:46:41;18.82;82.50
63899;HTU21D;50070;-32.946;-60.652;2023-04-24T05:49:08;18.76;82.32
63899;HTU21D;50070;-32.946;-60.652;2023-04-24T05:51:35;18.69;82.58
63899;HTU21D;50070;-32.946;-60.652;2023-04-24T05:54:01;18.43;83.73
63899;HTU21D;50070;-32.946;-60.652;2023-04-24T05:56:29;18.64;82.57
63899;HTU21D;50070;-32.946;-60.652;2023-04-24T05:58:56;18.88;81.32
63899;HTU21D;50070;-32.946;-60.652;2023-04-24T06:01:23;19.00;80.20
63899;HTU21D;50070;-32.946;-60.652;2023-04-24T06:03:51;18.95;80.04
63899;HTU21D;50070;-32.946;-60.652;2023-04-24T06:06:18;19.01;79.55
63899;HTU21D;50070;-32.946;-60.652;2023-04-24T06:08:45;19.11;78.87
63899;HTU21D;50070;-32.946;-60.652;2023-04-24T06:11:12;19.24;78.32
63899;HTU21D;50070;-32.946;-60.652;2023-04-24T06:13:39;19.26;77.96
63899;HTU21D;50070;-32.946;-60.652;2023-04-24T06:16:05;19.31;77.83
63899;HTU21D;50070;-32.946;-60.652;2023-04-24T06:18:32;19.38;77.15
63899;HTU21D;50070;-32.946;-60.652;2023-04-24T06:20:59;19.43;76.93
63899;HTU21D;50070;-32.946;-60.652;2023-04-24T06:23:26;19.26;77.21
63899;HTU21D;50070;-32.946;-60.652;2023-04-24T06:25:53;19.31;76.85
63899;HTU21D;50070;-32.946;-60.652;2023-04-24T06:28:20;19.09;78.06
63899;HTU21D;50070;-32.946;-60.652;2023-04-24T06:30:46;19.11;77.89
63899;HTU21D;50070;-32.946;-60.652;2023-04-24T06:33:12;19.17;77.79
63899;HTU21D;50070;-32.946;-60.652;2023-04-24T06:35:39;19.41;76.75
63899;HTU21D;50070;-32.946;-60.652;2023-04-24T06:38:05;19.32;76.90
63899;HTU21D;50070;-32.946;-60.652;2023-04-24T06:40:32;19.40;76.31
63899;HTU21D;50070;-32.946;-60.652;2023-04-24T06:42:59;19.38;76.29
63899;HTU21D;50070;-32.946;-60.652;2023-04-24T06:45:29;19.37;76.53
63899;HTU21D;50070;-32.946;-60.652;2023-04-24T06:47:56;19.41;76.06
63899;HTU21D;50070;-32.946;-60.652;2023-04-24T06:50:23;19.44;76.23
63899;HTU21D;50070;-32.946;-60.652;2023-04-24T06:52:50;19.57;75.73
63899;HTU21D;50070;-32.946;-60.652;2023-04-24T06:55:17;19.35;76.64
63899;HTU21D;50070;-32.946;-60.652;2023-04-24T06:57:44;19.63;75.50
63899;HTU21D;50070;-32.946;-60.652;2023-04-24T07:00:11;19.39;76.50
63899;HTU21D;50070;-32.946;-60.652;2023-04-24T07:02:38;19.51;76.07
63899;HTU21D;50070;-32.946;-60.652;2023-04-24T07:05:05;19.50;76.31
63899;HTU21D;50070;-32.946;-60.652;2023-04-24T07:07:34;19.12;77.76
63899;HTU21D;50070;-32.946;-60.652;2023-04-24T07:10:04;19.32;77.06
63899;HTU21D;50070;-32.946;-60.652;2023-04-24T07:12:31;19.16;77.50
63899;HTU21D;50070;-32.946;-60.652;2023-04-24T07:14:59;19.43;76.35
63899;HTU21D;50070;-32.946;-60.652;2023-04-24T07:17:25;19.36;76.59
63899;HTU21D;50070;-32.946;-60.652;2023-04-24T07:19:52;19.12;77.74
63899;HTU21D;50070;-32.946;-60.652;2023-04-24T07:22:19;19.09;78.08
63899;HTU21D;50070;-32.946;-60.652;2023-04-24T07:24:45;19.22;77.51
63899;HTU21D;50070;-32.946;-60.652;2023-04-24T07:27:12;19.31;77.27
63899;HTU21D;50070;-32.946;-60.652;2023-04-24T07:29:41;19.25;77.51
63899;HTU21D;50070;-32.946;-60.652;2023-04-24T07:32:07;18.97;79.02
63899;HTU21D;50070;-32.946;-60.652;2023-04-24T07:34:35;18.92;79.39
63899;HTU21D;50070;-32.946;-60.652;2023-04-24T07:37:02;18.97;79.27
63899;HTU21D;50070;-32.946;-60.652;2023-04-24T07:39:29;18.82;80.14
63899;HTU21D;50070;-32.946;-60.652;2023-04-24T07:41:56;18.85;80.12
63899;HTU21D;50070;-32.946;-60.652;2023-04-24T07:44:23;18.93;79.98
63899;HTU21D;50070;-32.946;-60.652;2023-04-24T07:46:49;18.88;79.80
63899;HTU21D;50070;-32.946;-60.652;2023-04-24T07:49:16;19.07;79.13
63899;HTU21D;50070;-32.946;-60.652;2023-04-24T07:51:43;18.89;79.86
63899;HTU21D;50070;-32.946;-60.652;2023-04-24T07:54:10;18.74;80.40
63899;HTU21D;50070;-32.946;-60.652;2023-04-24T07:56:37;18.95;79.37
63899;HTU21D;50070;-32.946;-60.652;2023-04-24T07:59:09;18.99;79.25
63899;HTU21D;50070;-32.946;-60.652;2023-04-24T08:01:36;19.15;78.68
63899;HTU21D;50070;-32.946;-60.652;2023-04-24T08:04:04;19.07;79.09
63899;HTU21D;50070;-32.946;-60.652;2023-04-24T08:06:30;18.96;79.40
63899;HTU21D;50070;-32.946;-60.652;2023-04-24T08:08:58;18.85;79.87
63899;HTU21D;50070;-32.946;-60.652;2023-04-24T08:11:26;18.92;79.65
63899;HTU21D;50070;-32.946;-60.652;2023-04-24T08:13:53;18.94;79.67
63899;HTU21D;50070;-32.946;-60.652;2023-04-24T08:16:20;18.84;80.03
63899;HTU21D;50070;-32.946;-60.652;2023-04-24T08:18:47;18.79;80.21
63899;HTU21D;50070;-32.946;-60.652;2023-04-24T08:21:14;18.97;79.43
63899;HTU21D;50070;-32.946;-60.652;2023-04-24T08:23:43;18.81;80.04
63899;HTU21D;50070;-32.946;-60.652;2023-04-24T08:26:10;18.98;79.24
63899;HTU21D;50070;-32.946;-60.652;2023-04-24T08:28:37;18.81;79.66
63899;HTU21D;50070;-32.946;-60.652;2023-04-24T08:31:04;18.69;80.46
63899;HTU21D;50070;-32.946;-60.652;2023-04-24T08:33:31;18.65;80.49
63899;HTU21D;50070;-32.946;-60.652;2023-04-24T08:36:02;18.76;80.25
63899;HTU21D;50070;-32.946;-60.652;2023-04-24T08:38:29;18.72;80.17
63899;HTU21D;50070;-32.946;-60.652;2023-04-24T08:40:58;18.80;79.82
63899;HTU21D;50070;-32.946;-60.652;2023-04-24T08:43:26;18.40;81.50
63899;HTU21D;50070;-32.946;-60.652;2023-04-24T08:45:55;18.63;80.63
63899;HTU21D;50070;-32.946;-60.652;2023-04-24T08:48:23;18.57;80.80
63899;HTU21D;50070;-32.946;-60.652;2023-04-24T08:50:51;18.52;80.75
63899;HTU21D;50070;-32.946;-60.652;2023-04-24T08:53:18;18.53;80.42
63899;HTU21D;50070;-32.946;-60.652;2023-04-24T08:55:47;18.49;80.50
63899;HTU21D;50070;-32.946;-60.652;2023-04-24T08:58:16;18.44;80.16
63899;HTU21D;50070;-32.946;-60.652;2023-04-24T09:00:44;18.52;79.91
63899;HTU21D;50070;-32.946;-60.652;2023-04-24T09:03:16;18.39;80.39
63899;HTU21D;50070;-32.946;-60.652;2023-04-24T09:05:44;18.38;80.42
63899;HTU21D;50070;-32.946;-60.652;2023-04-24T09:08:13;18.43;79.96
63899;HTU21D;50070;-32.946;-60.652;2023-04-24T09:10:41;18.24;80.86
63899;HTU21D;50070;-32.946;-60.652;2023-04-24T09:13:08;18.18;81.22
63899;HTU21D;50070;-32.946;-60.652;2023-04-24T09:15:37;18.10;81.50
63899;HTU21D;50070;-32.946;-60.652;2023-04-24T09:18:04;18.17;81.17
63899;HTU21D;50070;-32.946;-60.652;2023-04-24T09:20:31;18.35;80.24
63899;HTU21D;50070;-32.946;-60.652;2023-04-24T09:22:58;18.34;80.05
63899;HTU21D;50070;-32.946;-60.652;2023-04-24T09:25:32;18.26;80.66
63899;HTU21D;50070;-32.946;-60.652;2023-04-24T09:28:03;18.27;80.53
63899;HTU21D;50070;-32.946;-60.652;2023-04-24T09:30:30;18.28;80.78
63899;HTU21D;50070;-32.946;-60.652;2023-04-24T09:33:13;18.44;80.03
63899;HTU21D;50070;-32.946;-60.652;2023-04-24T09:35:42;18.23;81.62
63899;HTU21D;50070;-32.946;-60.652;2023-04-24T09:38:09;18.30;81.31
63899;HTU21D;50070;-32.946;-60.652;2023-04-24T09:40:36;18.34;81.33
63899;HTU21D;50070;-32.946;-60.652;2023-04-24T09:43:03;18.26;82.05
63899;HTU21D;50070;-32.946;-60.652;2023-04-24T09:45:37;18.38;81.48
63899;HTU21D;50070;-32.946;-60.652;2023-04-24T09:48:08;18.41;82.52
63899;HTU21D;50070;-32.946;-60.652;2023-04-24T09:50:36;18.33;82.33
63899;HTU21D;50070;-32.946;-60.652;2023-04-24T09:53:04;18.15;83.62
63899;HTU21D;50070;-32.946;-60.652;2023-04-24T09:55:31;18.25;82.91
63899;HTU21D;50070;-32.946;-60.652;2023-04-24T09:58:00;18.37;82.78
63899;HTU21D;50070;-32.946;-60.652;2023-04-24T10:00:31;18.34;82.97
63899;HTU21D;50070;-32.946;-60.652;2023-04-24T10:03:03;18.29;83.13
63899;HTU21D;50070;-32.946;-60.652;2023-04-24T10:05:31;18.26;83.59
63899;HTU21D;50070;-32.946;-60.652;2023-04-24T10:08:09;18.27;83.61
63899;HTU21D;50070;-32.946;-60.652;2023-04-24T10:10:45;18.40;83.04
63899;HTU21D;50070;-32.946;-60.652;2023-04-24T10:13:14;18.36;83.27
63899;HTU21D;50070;-32.946;-60.652;2023-04-24T10:15:42;18.29;83.39
63899;HTU21D;50070;-32.946;-60.652;2023-04-24T10:18:09;18.05;84.61
63899;HTU21D;50070;-32.946;-60.652;2023-04-24T10:20:38;18.00;84.94
63899;HTU21D;50070;-32.946;-60.652;2023-04-24T10:23:05;18.08;84.58
63899;HTU21D;50070;-32.946;-60.652;2023-04-24T10:25:34;18.03;85.06
63899;HTU21D;50070;-32.946;-60.652;2023-04-24T10:28:01;17.95;85.29
63899;HTU21D;50070;-32.946;-60.652;2023-04-24T10:30:33;17.96;85.26
63899;HTU21D;50070;-32.946;-60.652;2023-04-24T10:33:06;18.03;85.21
63899;HTU21D;50070;-32.946;-60.652;2023-04-24T10:35:44;18.15;84.61
63899;HTU21D;50070;-32.946;-60.652;2023-04-24T10:38:17;18.13;84.49
63899;HTU21D;50070;-32.946;-60.652;2023-04-24T10:40:44;18.10;84.40
63899;HTU21D;50070;-32.946;-60.652;2023-04-24T10:43:17;18.20;84.27
63899;HTU21D;50070;-32.946;-60.652;2023-04-24T10:46:05;18.17;84.28
63899;HTU21D;50070;-32.946;-60.652;2023-04-24T10:48:32;18.37;83.61
63899;HTU21D;50070;-32.946;-60.652;2023-04-24T10:50:59;18.30;83.71
63899;HTU21D;50070;-32.946;-60.652;2023-04-24T10:53:30;18.52;82.56
63899;HTU21D;50070;-32.946;-60.652;2023-04-24T10:56:05;18.49;82.68
63899;HTU21D;50070;-32.946;-60.652;2023-04-24T10:58:41;18.51;82.36
63899;HTU21D;50070;-32.946;-60.652;2023-04-24T11:01:30;18.26;83.41
63899;HTU21D;50070;-32.946;-60.652;2023-04-24T11:04:02;18.19;84.13
63899;HTU21D;50070;-32.946;-60.652;2023-04-24T11:06:33;18.32;83.39
63899;HTU21D;50070;-32.946;-60.652;2023-04-24T11:09:05;18.29;83.39
63899;HTU21D;50070;-32.946;-60.652;2023-04-24T11:11:34;18.19;83.94
63899;HTU21D;50070;-32.946;-60.652;2023-04-24T11:14:06;18.18;84.01
63899;HTU21D;50070;-32.946;-60.652;2023-04-24T11:16:35;18.08;84.54
63899;HTU21D;50070;-32.946;-60.652;2023-04-24T11:22:06;18.05;85.00
63899;HTU21D;50070;-32.946;-60.652;2023-04-24T11:24:50;18.07;84.67
63899;HTU21D;50070;-32.946;-60.652;2023-04-24T11:27:21;18.18;84.75
63899;HTU21D;50070;-32.946;-60.652;2023-04-24T11:35:03;18.04;85.29
63899;HTU21D;50070;-32.946;-60.652;2023-04-24T11:37:35;18.08;85.11
63899;HTU21D;50070;-32.946;-60.652;2023-04-24T11:40:03;18.05;85.38
63899;HTU21D;50070;-32.946;-60.652;2023-04-24T11:42:38;18.00;85.80
63899;HTU21D;50070;-32.946;-60.652;2023-04-24T11:47:36;18.07;85.82
63899;HTU21D;50070;-32.946;-60.652;2023-04-24T11:50:05;17.94;86.36
63899;HTU21D;50070;-32.946;-60.652;2023-04-24T11:52:36;17.83;86.84
63899;HTU21D;50070;-32.946;-60.652;2023-04-24T11:55:04;17.90;86.46
63899;HTU21D;50070;-32.946;-60.652;2023-04-24T11:57:31;17.95;86.38
63899;HTU21D;50070;-32.946;-60.652;2023-04-24T12:00:04;17.94;86.47
63899;HTU21D;50070;-32.946;-60.652;2023-04-24T12:02:31;18.15;85.64
63899;HTU21D;50070;-32.946;-60.652;2023-04-24T12:04:59;18.40;84.53
63899;HTU21D;50070;-32.946;-60.652;2023-04-24T12:07:26;18.07;85.94
63899;HTU21D;50070;-32.946;-60.652;2023-04-24T12:09:58;18.22;85.32
63899;HTU21D;50070;-32.946;-60.652;2023-04-24T12:12:28;18.20;85.51
63899;HTU21D;50070;-32.946;-60.652;2023-04-24T12:14:57;18.23;85.11
63899;HTU21D;50070;-32.946;-60.652;2023-04-24T12:17:34;18.25;85.22
63899;HTU21D;50070;-32.946;-60.652;2023-04-24T12:20:07;18.32;85.16
63899;HTU21D;50070;-32.946;-60.652;2023-04-24T12:22:47;18.48;84.72
63899;HTU21D;50070;-32.946;-60.652;2023-04-24T12:25:15;18.44;84.43
63899;HTU21D;50070;-32.946;-60.652;2023-04-24T12:27:42;18.46;84.53
63899;HTU21D;50070;-32.946;-60.652;2023-04-24T12:30:16;18.57;84.08
63899;HTU21D;50070;-32.946;-60.652;2023-04-24T12:32:45;18.84;82.36
63899;HTU21D;50070;-32.946;-60.652;2023-04-24T12:35:13;18.77;83.07
63899;HTU21D;50070;-32.946;-60.652;2023-04-24T12:37:42;18.69;83.26
63899;HTU21D;50070;-32.946;-60.652;2023-04-24T12:40:11;18.83;82.78
63899;HTU21D;50070;-32.946;-60.652;2023-04-24T12:42:49;18.76;82.87
63899;HTU21D;50070;-32.946;-60.652;2023-04-24T12:45:18;18.85;82.71
63899;HTU21D;50070;-32.946;-60.652;2023-04-24T12:47:45;18.84;82.82
63899;HTU21D;50070;-32.946;-60.652;2023-04-24T12:50:14;18.82;82.84
63899;HTU21D;50070;-32.946;-60.652;2023-04-24T12:52:42;18.84;82.95
63899;HTU21D;50070;-32.946;-60.652;2023-04-24T12:55:10;18.99;82.18
63899;HTU21D;50070;-32.946;-60.652;2023-04-24T12:57:39;18.70;83.45
63899;HTU21D;50070;-32.946;-60.652;2023-04-24T13:00:07;18.56;84.13
63899;HTU21D;50070;-32.946;-60.652;2023-04-24T13:02:35;18.64;84.10
63899;HTU21D;50070;-32.946;-60.652;2023-04-24T13:05:02;18.66;84.10
63899;HTU21D;50070;-32.946;-60.652;2023-04-24T13:07:29;18.76;83.46
63899;HTU21D;50070;-32.946;-60.652;2023-04-24T13:09:56;18.93;83.32
63899;HTU21D;50070;-32.946;-60.652;2023-04-24T13:12:26;19.01;82.96
63899;HTU21D;50070;-32.946;-60.652;2023-04-24T13:14:53;19.12;82.62
63899;HTU21D;50070;-32.946;-60.652;2023-04-24T13:17:21;19.06;83.23
63899;HTU21D;50070;-32.946;-60.652;2023-04-24T13:19:50;19.23;82.38
63899;HTU21D;50070;-32.946;-60.652;2023-04-24T13:22:18;19.17;82.64
63899;HTU21D;50070;-32.946;-60.652;2023-04-24T13:24:48;19.15;82.93
63899;HTU21D;50070;-32.946;-60.652;2023-04-24T13:27:15;18.98;83.39
63899;HTU21D;50070;-32.946;-60.652;2023-04-24T13:29:42;19.13;82.95
63899;HTU21D;50070;-32.946;-60.652;2023-04-24T13:32:09;19.06;82.97
63899;HTU21D;50070;-32.946;-60.652;2023-04-24T13:34:36;19.02;83.10
63899;HTU21D;50070;-32.946;-60.652;2023-04-24T13:37:03;19.16;82.60
63899;HTU21D;50070;-32.946;-60.652;2023-04-24T13:39:31;19.16;82.57
63899;HTU21D;50070;-32.946;-60.652;2023-04-24T13:41:58;19.23;82.43
63899;HTU21D;50070;-32.946;-60.652;2023-04-24T13:44:25;19.20;82.18
63899;HTU21D;50070;-32.946;-60.652;2023-04-24T13:46:54;19.20;82.04
63899;HTU21D;50070;-32.946;-60.652;2023-04-24T13:49:24;19.20;81.99
63899;HTU21D;50070;-32.946;-60.652;2023-04-24T13:51:54;19.21;81.34
63899;HTU21D;50070;-32.946;-60.652;2023-04-24T13:54:21;19.05;82.25
63899;HTU21D;50070;-32.946;-60.652;2023-04-24T13:56:50;19.22;81.55
63899;HTU21D;50070;-32.946;-60.652;2023-04-24T13:59:17;19.26;81.32
63899;HTU21D;50070;-32.946;-60.652;2023-04-24T14:01:45;19.46;80.49
63899;HTU21D;50070;-32.946;-60.652;2023-04-24T14:04:13;19.66;79.49
63899;HTU21D;50070;-32.946;-60.652;2023-04-24T14:06:40;19.62;79.91
63899;HTU21D;50070;-32.946;-60.652;2023-04-24T14:09:06;19.52;80.49
63899;HTU21D;50070;-32.946;-60.652;2023-04-24T14:11:33;19.29;82.04
63899;HTU21D;50070;-32.946;-60.652;2023-04-24T14:14:00;19.13;83.06
63899;HTU21D;50070;-32.946;-60.652;2023-04-24T14:16:28;19.24;82.66
63899;HTU21D;50070;-32.946;-60.652;2023-04-24T14:18:56;19.62;81.20
63899;HTU21D;50070;-32.946;-60.652;2023-04-24T14:21:23;19.56;81.94
63899;HTU21D;50070;-32.946;-60.652;2023-04-24T14:23:49;19.67;80.98
63899;HTU21D;50070;-32.946;-60.652;2023-04-24T14:26:16;19.39;82.39
63899;HTU21D;50070;-32.946;-60.652;2023-04-24T14:28:43;19.27;83.01
63899;HTU21D;50070;-32.946;-60.652;2023-04-24T14:31:10;19.28;83.04
63899;HTU21D;50070;-32.946;-60.652;2023-04-24T14:33:37;19.54;82.11
63899;HTU21D;50070;-32.946;-60.652;2023-04-24T14:36:04;19.72;81.14
63899;HTU21D;50070;-32.946;-60.652;2023-04-24T14:38:31;19.57;81.88
63899;HTU21D;50070;-32.946;-60.652;2023-04-24T14:40:58;19.39;82.65
63899;HTU21D;50070;-32.946;-60.652;2023-04-24T14:43:25;19.39;82.46
63899;HTU21D;50070;-32.946;-60.652;2023-04-24T14:45:52;19.53;81.91
63899;HTU21D;50070;-32.946;-60.652;2023-04-24T14:48:18;19.71;80.62
63899;HTU21D;50070;-32.946;-60.652;2023-04-24T14:50:45;19.97;79.65